Time;durP1;ratioP1;P1;durP2;ratioP2;P2;SDS_P1;SDS_P2;PMS_P1;PMS_P2;Temp;Humidity;BMP_temperature;BMP_pressure;BME280_temperature;BME280_humidity;BME280_pressure;Samples;Min_cycle;Max_cycle;Signal;HPM_P1;HPM_P2
2021/08/25 00:01:13;;;;;;;6.05;5.25;;;;;;;;;;4991085;28;20038;-48
2021/08/25 00:03:40;;;;;;;8.32;5.70;;;;;;;;;;4991073;28;20042;-48
2021/08/25 00:06:07;;;;;;;7.00;5.30;;;;;;;;;;4984700;28;20042;-51
2021/08/25 00:08:33;;;;;;;7.30;5.97;;;;;;;;;;4974706;28;20043;-50
2021/08/25 00:11:00;;;;;;;6.65;5.60;;;;;;;;;;4992008;28;20072;-48
2021/08/25 00:13:27;;;;;;;7.40;5.95;;;;;;;;;;4991876;28;20066;-50
2021/08/25 00:15:53;;;;;;;8.48;5.78;;;;;;;;;;4991274;28;20073;-48
2021/08/25 00:18:20;;;;;;;7.40;5.90;;;;;;;;;;4980635;28;20047;-48
2021/08/25 00:20:47;;;;;;;5.85;5.15;;;;;;;;;;4972552;28;20071;-49
2021/08/25 00:23:14;;;;;;;7.53;5.70;;;;;;;;;;4990162;28;20042;-49
2021/08/25 00:25:41;;;;;;;6.50;5.30;;;;;;;;;;4991353;28;20052;-51
2021/08/25 00:28:08;;;;;;;6.78;5.70;;;;;;;;;;4970771;28;20097;-49
2021/08/25 00:30:35;;;;;;;7.68;6.13;;;;;;;;;;4987278;28;20039;-48
2021/08/25 00:33:02;;;;;;;9.05;6.13;;;;;;;;;;4991867;28;20504;-50
2021/08/25 00:35:29;;;;;;;7.55;5.57;;;;;;;;;;4988045;28;20046;-48
2021/08/25 00:37:55;;;;;;;8.40;6.68;;;;;;;;;;4991658;28;20563;-49
2021/08/25 00:40:22;;;;;;;8.70;6.40;;;;;;;;;;4985605;28;20069;-48
2021/08/25 00:42:49;;;;;;;6.60;5.85;;;;;;;;;;4991614;28;20052;-52
2021/08/25 00:45:16;;;;;;;8.73;6.50;;;;;;;;;;4990608;28;20065;-52
2021/08/25 00:47:43;;;;;;;7.63;6.38;;;;;;;;;;4990399;28;20600;-49
2021/08/25 00:50:10;;;;;;;9.73;6.78;;;;;;;;;;4991560;28;20196;-47
2021/08/25 00:52:39;;;;;;;9.23;6.70;;;;;;;;;;4990437;28;20042;-48
2021/08/25 00:55:07;;;;;;;8.65;6.65;;;;;;;;;;4990879;28;20058;-53
2021/08/25 00:57:35;;;;;;;7.47;6.10;;;;;;;;;;4989739;28;20496;-48
2021/08/25 01:00:05;;;;;;;7.32;6.15;;;;;;;;;;4991248;28;20046;-48
2021/08/25 01:02:38;;;;;;;8.75;6.13;;;;;;;;;;4990647;28;20042;-49
2021/08/25 01:05:06;;;;;;;7.70;6.30;;;;;;;;;;4989987;28;20407;-49
2021/08/25 01:07:33;;;;;;;10.18;6.95;;;;;;;;;;4991759;28;20050;-48
2021/08/25 01:10:18;;;;;;;7.53;5.82;;;;;;;;;;4976171;28;20043;-48
2021/08/25 01:12:45;;;;;;;7.82;6.22;;;;;;;;;;4972346;28;20518;-50
2021/08/25 01:15:12;;;;;;;8.45;6.93;;;;;;;;;;4989536;28;20038;-51
2021/08/25 01:17:39;;;;;;;8.32;6.45;;;;;;;;;;4994283;28;20042;-53
2021/08/25 01:20:09;;;;;;;7.60;6.68;;;;;;;;;;4995253;28;20050;-51
2021/08/25 01:22:36;;;;;;;9.27;6.72;;;;;;;;;;4995248;28;20046;-50
2021/08/25 01:25:05;;;;;;;8.73;6.90;;;;;;;;;;4994613;28;20121;-49
2021/08/25 01:27:33;;;;;;;7.78;6.60;;;;;;;;;;4985325;28;20205;-48
2021/08/25 01:30:00;;;;;;;8.00;6.68;;;;;;;;;;4994737;28;20046;-47
2021/08/25 01:32:27;;;;;;;8.38;6.60;;;;;;;;;;4994722;28;20050;-48
2021/08/25 01:34:54;;;;;;;8.38;6.97;;;;;;;;;;4988327;28;20092;-47
2021/08/25 01:37:21;;;;;;;8.85;6.68;;;;;;;;;;4994894;28;20034;-50
2021/08/25 01:39:49;;;;;;;8.38;7.13;;;;;;;;;;4993596;28;20050;-50
2021/08/25 01:42:19;;;;;;;9.05;7.25;;;;;;;;;;4975332;28;20043;-47
2021/08/25 01:44:46;;;;;;;10.27;6.78;;;;;;;;;;4975279;28;20043;-47
2021/08/25 01:47:13;;;;;;;8.40;7.03;;;;;;;;;;5009430;28;20368;-50
2021/08/25 01:49:41;;;;;;;9.82;7.32;;;;;;;;;;4977996;28;20514;-49
2021/08/25 01:52:07;;;;;;;9.52;7.78;;;;;;;;;;5008287;28;20574;-48
2021/08/25 01:54:35;;;;;;;11.07;6.85;;;;;;;;;;4994819;28;20133;-49
2021/08/25 01:57:02;;;;;;;7.68;6.85;;;;;;;;;;4985175;28;20042;-48
2021/08/25 01:59:28;;;;;;;9.63;7.30;;;;;;;;;;4975282;28;20051;-49
2021/08/25 02:01:56;;;;;;;9.48;7.20;;;;;;;;;;4990453;28;20053;-49
2021/08/25 02:04:23;;;;;;;8.40;7.13;;;;;;;;;;4989687;28;20038;-51
2021/08/25 02:06:50;;;;;;;8.20;6.95;;;;;;;;;;4975234;28;20540;-48
2021/08/25 02:09:18;;;;;;;7.93;6.68;;;;;;;;;;4978455;28;20053;-50
2021/08/25 02:11:44;;;;;;;10.02;6.80;;;;;;;;;;4993161;28;20503;-48
2021/08/25 02:14:11;;;;;;;8.50;7.20;;;;;;;;;;4992413;28;20058;-48
2021/08/25 02:16:38;;;;;;;8.38;6.25;;;;;;;;;;4993731;28;20514;-48
2021/08/25 02:19:05;;;;;;;8.38;7.38;;;;;;;;;;4977773;28;20081;-48
2021/08/25 02:21:33;;;;;;;9.95;7.35;;;;;;;;;;4994226;28;20506;-50
2021/08/25 02:24:00;;;;;;;9.23;7.30;;;;;;;;;;4993722;28;20691;-51
2021/08/25 02:26:26;;;;;;;9.13;7.85;;;;;;;;;;4987849;28;20556;-49
2021/08/25 02:28:53;;;;;;;10.25;7.55;;;;;;;;;;4976847;28;20126;-49
2021/08/25 02:31:21;;;;;;;9.30;7.10;;;;;;;;;;4993845;28;20082;-49
2021/08/25 02:33:49;;;;;;;9.98;7.82;;;;;;;;;;4992751;28;20058;-50
2021/08/25 02:36:16;;;;;;;9.20;7.20;;;;;;;;;;4987372;28;20050;-50
2021/08/25 02:38:43;;;;;;;9.05;7.50;;;;;;;;;;4987053;28;20043;-51
2021/08/25 02:41:11;;;;;;;9.43;7.40;;;;;;;;;;4984428;28;20034;-49
2021/08/25 02:43:39;;;;;;;10.25;7.65;;;;;;;;;;4993846;28;20157;-50
2021/08/25 02:46:05;;;;;;;9.93;8.15;;;;;;;;;;4993506;28;20038;-50
2021/08/25 02:48:33;;;;;;;9.77;7.65;;;;;;;;;;4994003;28;20038;-49
2021/08/25 02:50:59;;;;;;;8.88;7.60;;;;;;;;;;5000657;28;20043;-50
2021/08/25 02:53:26;;;;;;;10.93;8.00;;;;;;;;;;4993491;28;20528;-48
2021/08/25 02:55:55;;;;;;;9.90;7.75;;;;;;;;;;4992064;28;20606;-48
2021/08/25 02:58:22;;;;;;;10.65;7.25;;;;;;;;;;4993433;28;20056;-50
2021/08/25 03:00:48;;;;;;;10.10;7.35;;;;;;;;;;4993299;28;20042;-48
2021/08/25 03:03:15;;;;;;;10.27;8.02;;;;;;;;;;4992233;28;20038;-50
2021/08/25 03:05:43;;;;;;;9.68;8.02;;;;;;;;;;4991570;28;20065;-48
2021/08/25 03:08:09;;;;;;;9.10;7.53;;;;;;;;;;4973533;28;20448;-51
2021/08/25 03:10:36;;;;;;;9.40;8.07;;;;;;;;;;4992794;28;20038;-49
2021/08/25 03:13:03;;;;;;;9.25;8.10;;;;;;;;;;4992798;28;20054;-50
2021/08/25 03:15:30;;;;;;;9.68;8.20;;;;;;;;;;4992837;28;20129;-48
2021/08/25 03:17:56;;;;;;;8.73;7.18;;;;;;;;;;4990644;28;20133;-50
2021/08/25 03:20:23;;;;;;;8.55;7.63;;;;;;;;;;4993066;28;20086;-51
2021/08/25 03:22:50;;;;;;;9.13;7.63;;;;;;;;;;4992769;28;20227;-49
2021/08/25 03:25:17;;;;;;;9.02;8.13;;;;;;;;;;4993041;28;20042;-50
2021/08/25 03:27:44;;;;;;;10.15;8.27;;;;;;;;;;4979596;28;20045;-49
2021/08/25 03:30:11;;;;;;;11.02;7.63;;;;;;;;;;4973352;28;20057;-49
2021/08/25 03:32:37;;;;;;;11.63;7.63;;;;;;;;;;4985571;28;20046;-51
2021/08/25 03:35:04;;;;;;;9.88;7.82;;;;;;;;;;4992358;28;20081;-51
2021/08/25 03:37:31;;;;;;;10.38;8.10;;;;;;;;;;4991048;28;20046;-49
2021/08/25 03:39:58;;;;;;;9.98;8.32;;;;;;;;;;4991396;28;20488;-49
2021/08/25 03:42:25;;;;;;;11.43;8.63;;;;;;;;;;4992520;28;20038;-52
2021/08/25 03:44:51;;;;;;;8.63;7.72;;;;;;;;;;4991971;28;20046;-50
2021/08/25 03:47:18;;;;;;;11.13;8.10;;;;;;;;;;4991867;28;20034;-51
2021/08/25 03:49:45;;;;;;;11.25;8.70;;;;;;;;;;4990122;28;20682;-48
2021/08/25 03:52:11;;;;;;;10.15;8.23;;;;;;;;;;4990925;28;20070;-49
2021/08/25 03:54:38;;;;;;;10.90;8.82;;;;;;;;;;4991642;28;20048;-51
2021/08/25 03:57:05;;;;;;;9.57;8.20;;;;;;;;;;4991121;28;20206;-50
2021/08/25 03:59:32;;;;;;;11.85;8.60;;;;;;;;;;4992040;28;20039;-48
2021/08/25 04:01:59;;;;;;;9.13;7.95;;;;;;;;;;4992822;28;20042;-50
2021/08/25 04:04:26;;;;;;;10.75;8.63;;;;;;;;;;4991297;28;20137;-50
2021/08/25 04:06:53;;;;;;;11.23;8.77;;;;;;;;;;4974020;28;20043;-50
2021/08/25 04:09:19;;;;;;;12.98;9.27;;;;;;;;;;4987593;28;20407;-50
2021/08/25 04:11:46;;;;;;;11.77;8.73;;;;;;;;;;4992424;28;20073;-50
2021/08/25 04:14:13;;;;;;;12.10;8.88;;;;;;;;;;5007128;28;20460;-48
2021/08/25 04:16:42;;;;;;;10.43;8.75;;;;;;;;;;4991298;28;20456;-49
2021/08/25 04:19:09;;;;;;;11.90;9.15;;;;;;;;;;4990461;28;20042;-48
2021/08/25 04:21:35;;;;;;;11.85;8.93;;;;;;;;;;4991223;28;20050;-48
2021/08/25 04:24:02;;;;;;;10.68;8.57;;;;;;;;;;4991535;28;20045;-49
2021/08/25 04:26:29;;;;;;;10.85;9.20;;;;;;;;;;4973801;28;20038;-48
2021/08/25 04:28:56;;;;;;;12.00;9.50;;;;;;;;;;4986994;28;20125;-48
2021/08/25 04:31:22;;;;;;;11.45;9.13;;;;;;;;;;4991642;28;20520;-47
2021/08/25 04:33:50;;;;;;;11.55;8.95;;;;;;;;;;4991617;28;20146;-47
2021/08/25 04:36:17;;;;;;;11.90;8.88;;;;;;;;;;4986949;28;20042;-51
2021/08/25 04:38:43;;;;;;;12.65;9.48;;;;;;;;;;4986792;28;20408;-50
2021/08/25 04:41:10;;;;;;;10.95;9.02;;;;;;;;;;4972742;28;20504;-49
2021/08/25 04:43:37;;;;;;;12.25;9.27;;;;;;;;;;4982441;28;20046;-48
2021/08/25 04:46:04;;;;;;;14.50;9.23;;;;;;;;;;4991998;28;20455;-47
2021/08/25 04:48:31;;;;;;;13.05;9.38;;;;;;;;;;4989243;28;20090;-47
2021/08/25 04:50:57;;;;;;;11.02;9.48;;;;;;;;;;4993468;28;20389;-49
2021/08/25 04:53:24;;;;;;;10.57;8.88;;;;;;;;;;4995480;28;20046;-46
2021/08/25 04:55:51;;;;;;;11.35;8.70;;;;;;;;;;4995671;28;20042;-50
2021/08/25 04:58:20;;;;;;;11.52;8.43;;;;;;;;;;4994499;28;20042;-48
2021/08/25 05:00:48;;;;;;;15.25;10.05;;;;;;;;;;4995606;28;20038;-48
2021/08/25 05:03:16;;;;;;;12.77;9.23;;;;;;;;;;4995140;28;20045;-49
2021/08/25 05:05:43;;;;;;;10.85;9.00;;;;;;;;;;4993787;28;20042;-48
2021/08/25 05:08:10;;;;;;;10.23;9.13;;;;;;;;;;4994931;28;20074;-52
2021/08/25 05:10:37;;;;;;;12.88;8.98;;;;;;;;;;4979494;28;20129;-49
2021/08/25 05:13:03;;;;;;;11.85;9.45;;;;;;;;;;4995408;28;20496;-50
2021/08/25 05:15:30;;;;;;;11.38;8.93;;;;;;;;;;4994989;28;20046;-52
2021/08/25 05:17:57;;;;;;;12.95;8.93;;;;;;;;;;4985255;28;20039;-52
2021/08/25 05:20:24;;;;;;;12.68;9.38;;;;;;;;;;4992770;28;20416;-50
2021/08/25 05:22:50;;;;;;;12.63;9.20;;;;;;;;;;4995414;28;20084;-50
2021/08/25 05:25:18;;;;;;;13.18;9.10;;;;;;;;;;4993497;28;20043;-49
2021/08/25 05:27:44;;;;;;;10.35;8.45;;;;;;;;;;4995471;28;20416;-48
2021/08/25 05:30:11;;;;;;;11.98;9.25;;;;;;;;;;4995012;28;20504;-48
2021/08/25 05:32:38;;;;;;;11.65;8.93;;;;;;;;;;4995365;28;20129;-49
2021/08/25 05:35:05;;;;;;;11.35;9.05;;;;;;;;;;4993339;28;20049;-48
2021/08/25 05:37:32;;;;;;;12.43;9.00;;;;;;;;;;4992763;28;20133;-52
2021/08/25 05:39:58;;;;;;;10.93;8.73;;;;;;;;;;4989414;28;20042;-49
2021/08/25 05:42:25;;;;;;;14.02;9.30;;;;;;;;;;4993025;28;20516;-51
2021/08/25 05:44:52;;;;;;;14.05;8.95;;;;;;;;;;4994232;28;20054;-49
2021/08/25 05:47:18;;;;;;;11.15;8.10;;;;;;;;;;4994958;28;20056;-53
2021/08/25 05:49:45;;;;;;;12.85;8.02;;;;;;;;;;4997555;28;20061;-49
2021/08/25 05:52:12;;;;;;;11.70;8.48;;;;;;;;;;4994938;28;20048;-49
2021/08/25 05:54:38;;;;;;;14.00;8.13;;;;;;;;;;4993943;28;20045;-49
2021/08/25 05:57:08;;;;;;;10.15;8.10;;;;;;;;;;4983570;28;20127;-50
2021/08/25 05:59:34;;;;;;;9.63;7.70;;;;;;;;;;4981255;28;20411;-48
2021/08/25 06:02:01;;;;;;;10.18;8.23;;;;;;;;;;4994677;28;20052;-51
2021/08/25 06:04:28;;;;;;;10.55;8.00;;;;;;;;;;4993733;28;20034;-49
2021/08/25 06:06:55;;;;;;;12.07;7.78;;;;;;;;;;4990036;28;20102;-50
2021/08/25 06:09:22;;;;;;;9.68;7.68;;;;;;;;;;4993088;28;20047;-49
2021/08/25 06:11:49;;;;;;;14.15;8.77;;;;;;;;;;4994488;28;20042;-52
2021/08/25 06:14:15;;;;;;;15.65;8.02;;;;;;;;;;4993691;28;20104;-50
2021/08/25 06:16:43;;;;;;;9.90;6.90;;;;;;;;;;4993050;28;20051;-48
2021/08/25 06:19:10;;;;;;;9.60;7.45;;;;;;;;;;4991758;28;20046;-52
2021/08/25 06:21:55;;;;;;;9.70;7.35;;;;;;;;;;4996377;28;20083;-52
2021/08/25 06:24:25;;;;;;;11.75;7.97;;;;;;;;;;4993390;28;20036;-49
2021/08/25 06:26:52;;;;;;;9.73;7.50;;;;;;;;;;4999675;28;20038;-49
2021/08/25 06:29:18;;;;;;;10.75;7.63;;;;;;;;;;4993872;28;20034;-49
2021/08/25 06:31:45;;;;;;;10.52;6.68;;;;;;;;;;4998751;28;20423;-50
2021/08/25 06:34:12;;;;;;;9.60;6.85;;;;;;;;;;5004134;28;20124;-50
2021/08/25 06:36:39;;;;;;;10.68;7.15;;;;;;;;;;4990209;28;20046;-51
2021/08/25 06:39:05;;;;;;;9.27;7.05;;;;;;;;;;4985463;28;20057;-52
2021/08/25 06:41:32;;;;;;;9.65;7.43;;;;;;;;;;4993841;28;20046;-48
2021/08/25 06:43:59;;;;;;;9.43;6.80;;;;;;;;;;5011375;28;20776;-53
2021/08/25 06:46:26;;;;;;;8.95;6.90;;;;;;;;;;4996049;28;20488;-48
2021/08/25 06:48:53;;;;;;;10.50;7.82;;;;;;;;;;4992314;28;20043;-52
2021/08/25 06:51:19;;;;;;;9.95;7.22;;;;;;;;;;4991394;28;20049;-49
2021/08/25 06:53:46;;;;;;;8.63;6.43;;;;;;;;;;4990494;28;20069;-51
2021/08/25 06:56:13;;;;;;;8.95;6.88;;;;;;;;;;4989597;28;20048;-50
2021/08/25 06:58:44;;;;;;;8.93;6.25;;;;;;;;;;5002911;28;20066;-48
2021/08/25 07:01:11;;;;;;;9.90;6.55;;;;;;;;;;4989077;28;20125;-50
2021/08/25 07:03:38;;;;;;;10.73;6.45;;;;;;;;;;4998501;28;20120;-49
2021/08/25 07:06:05;;;;;;;7.97;6.28;;;;;;;;;;4996140;28;20073;-52
2021/08/25 07:08:32;;;;;;;8.05;6.15;;;;;;;;;;5002396;28;20039;-49
2021/08/25 07:10:58;;;;;;;7.55;6.20;;;;;;;;;;5006807;28;20049;-52
2021/08/25 07:13:25;;;;;;;8.95;6.13;;;;;;;;;;4988496;28;20048;-53
2021/08/25 07:15:52;;;;;;;7.47;5.75;;;;;;;;;;4989307;28;20042;-48
2021/08/25 07:18:19;;;;;;;11.98;6.13;;;;;;;;;;4988431;28;20058;-48
2021/08/25 07:20:46;;;;;;;10.32;6.32;;;;;;;;;;4985324;28;20057;-53
2021/08/25 07:23:13;;;;;;;7.82;5.68;;;;;;;;;;4987984;28;20065;-50
2021/08/25 07:25:40;;;;;;;7.95;5.72;;;;;;;;;;5003975;28;20034;-51
2021/08/25 07:28:07;;;;;;;9.05;6.13;;;;;;;;;;4989424;28;20035;-48
2021/08/25 07:30:33;;;;;;;8.38;5.68;;;;;;;;;;4987046;28;20042;-50
2021/08/25 07:33:01;;;;;;;7.95;5.72;;;;;;;;;;4989217;28;20125;-49
2021/08/25 07:35:29;;;;;;;9.48;5.60;;;;;;;;;;4988772;28;20046;-53
2021/08/25 07:37:57;;;;;;;6.53;5.15;;;;;;;;;;4988548;28;20834;-49
2021/08/25 07:40:24;;;;;;;7.75;5.53;;;;;;;;;;4987685;28;20492;-49
2021/08/25 07:42:51;;;;;;;7.28;5.47;;;;;;;;;;4989871;28;20475;-50
2021/08/25 07:45:18;;;;;;;7.68;5.10;;;;;;;;;;4989396;28;20066;-51
2021/08/25 07:47:46;;;;;;;8.52;5.40;;;;;;;;;;4988352;28;20035;-45
2021/08/25 07:50:13;;;;;;;9.48;5.90;;;;;;;;;;4988030;28;20153;-50
2021/08/25 07:52:40;;;;;;;7.57;5.03;;;;;;;;;;4983776;28;20058;-49
2021/08/25 07:55:07;;;;;;;8.48;5.22;;;;;;;;;;4989105;28;20055;-48
2021/08/25 07:57:34;;;;;;;6.93;5.00;;;;;;;;;;4988548;28;20042;-46
2021/08/25 08:00:01;;;;;;;6.65;5.25;;;;;;;;;;4991346;28;20039;-49
2021/08/25 08:02:30;;;;;;;8.05;4.97;;;;;;;;;;4989759;28;20113;-48
2021/08/25 08:04:57;;;;;;;30.90;6.90;;;;;;;;;;4989084;28;20050;-50
2021/08/25 08:07:24;;;;;;;16.50;5.65;;;;;;;;;;4993339;28;20137;-48
2021/08/25 08:09:50;;;;;;;26.40;7.10;;;;;;;;;;4993158;28;20046;-49
2021/08/25 08:12:17;;;;;;;13.88;6.15;;;;;;;;;;4976453;28;20500;-50
2021/08/25 08:14:44;;;;;;;11.23;5.53;;;;;;;;;;4992628;28;20042;-52
2021/08/25 08:17:11;;;;;;;9.65;6.05;;;;;;;;;;4992383;28;20042;-50
2021/08/25 08:19:38;;;;;;;7.82;5.57;;;;;;;;;;4990464;28;20046;-52
2021/08/25 08:22:05;;;;;;;7.13;5.53;;;;;;;;;;4992373;28;20046;-48
2021/08/25 08:24:32;;;;;;;11.68;6.20;;;;;;;;;;4992064;28;20129;-51
2021/08/25 08:26:59;;;;;;;9.73;5.07;;;;;;;;;;4989813;28;20068;-51
2021/08/25 08:29:26;;;;;;;7.57;5.25;;;;;;;;;;5013255;28;20130;-50
2021/08/25 08:31:53;;;;;;;7.63;5.55;;;;;;;;;;5001083;28;20437;-47
2021/08/25 08:34:20;;;;;;;16.63;6.03;;;;;;;;;;4987431;28;20150;-47
2021/08/25 08:36:47;;;;;;;13.25;5.38;;;;;;;;;;4987070;28;20046;-48
2021/08/25 08:39:14;;;;;;;8.20;4.50;;;;;;;;;;4994845;28;20049;-50
2021/08/25 08:41:41;;;;;;;6.28;4.25;;;;;;;;;;4991235;28;20067;-48
2021/08/25 08:44:12;;;;;;;5.45;4.00;;;;;;;;;;4977805;28;20094;-47
2021/08/25 08:46:42;;;;;;;5.53;4.00;;;;;;;;;;4988146;28;20052;-48
2021/08/25 08:49:10;;;;;;;7.70;4.65;;;;;;;;;;4992486;28;20044;-51
2021/08/25 08:51:38;;;;;;;5.93;4.30;;;;;;;;;;4985300;28;20051;-50
2021/08/25 08:54:05;;;;;;;8.90;4.68;;;;;;;;;;4998238;28;20145;-52
2021/08/25 08:56:32;;;;;;;6.78;4.65;;;;;;;;;;4982716;28;20046;-47
2021/08/25 08:59:00;;;;;;;6.43;4.22;;;;;;;;;;4995389;28;20125;-51
2021/08/25 09:01:28;;;;;;;6.03;4.22;;;;;;;;;;4994508;28;20045;-50
2021/08/25 09:03:57;;;;;;;7.82;3.95;;;;;;;;;;4988335;28;20595;-49
2021/08/25 09:06:46;;;;;;;7.25;4.32;;;;;;;;;;4993098;28;20053;-53
2021/08/25 09:09:13;;;;;;;6.90;4.57;;;;;;;;;;4994565;28;20044;-51
2021/08/25 09:11:57;;;;;;;7.57;4.03;;;;;;;;;;4995732;28;20050;-47
2021/08/25 09:14:27;;;;;;;7.20;4.70;;;;;;;;;;4991043;28;20050;-48
2021/08/25 09:17:00;;;;;;;7.43;4.43;;;;;;;;;;4995436;28;20046;-50
2021/08/25 09:19:33;;;;;;;8.00;4.47;;;;;;;;;;4986520;28;20039;-49
2021/08/25 09:22:00;;;;;;;5.75;3.53;;;;;;;;;;4995297;28;20077;-47
2021/08/25 09:24:38;;;;;;;9.25;4.32;;;;;;;;;;4995044;28;20121;-52
2021/08/25 09:27:07;;;;;;;6.45;4.22;;;;;;;;;;4994316;28;20053;-48
2021/08/25 09:29:36;;;;;;;8.18;4.80;;;;;;;;;;5010089;28;20121;-49
2021/08/25 09:32:14;;;;;;;7.50;4.57;;;;;;;;;;4995367;28;20053;-53
2021/08/25 09:34:41;;;;;;;8.45;4.38;;;;;;;;;;4993763;28;20053;-53
2021/08/25 09:37:09;;;;;;;7.10;4.18;;;;;;;;;;4978830;28;20081;-50
2021/08/25 09:39:56;;;;;;;7.78;4.35;;;;;;;;;;4987128;28;20050;-49
2021/08/25 09:42:41;;;;;;;7.72;4.25;;;;;;;;;;4995170;28;20046;-51
2021/08/25 09:45:08;;;;;;;7.70;3.70;;;;;;;;;;4994950;28;20034;-49
2021/08/25 09:47:44;;;;;;;7.95;4.30;;;;;;;;;;4993852;28;20050;-53
2021/08/25 09:50:11;;;;;;;10.48;4.30;;;;;;;;;;4995151;28;20046;-52
2021/08/25 09:52:38;;;;;;;8.90;4.60;;;;;;;;;;4995114;28;20050;-49
2021/08/25 09:55:05;;;;;;;7.72;4.28;;;;;;;;;;4994541;28;20052;-52
2021/08/25 09:57:39;;;;;;;7.32;4.00;;;;;;;;;;4983171;28;20054;-48
2021/08/25 10:00:07;;;;;;;6.82;4.05;;;;;;;;;;4975679;28;20049;-51
2021/08/25 10:02:37;;;;;;;7.32;4.55;;;;;;;;;;4975238;28;20483;-49
2021/08/25 10:05:26;;;;;;;6.28;3.63;;;;;;;;;;4975056;28;20082;-50
2021/08/25 10:08:16;;;;;;;6.35;4.03;;;;;;;;;;4991183;28;20145;-51
2021/08/25 10:10:43;;;;;;;7.72;4.63;;;;;;;;;;4974704;28;20510;-53
2021/08/25 10:13:10;;;;;;;6.82;3.38;;;;;;;;;;4974214;28;20081;-48
2021/08/25 10:15:41;;;;;;;6.60;4.45;;;;;;;;;;4973586;28;20051;-50
2021/08/25 10:18:24;;;;;;;8.20;4.53;;;;;;;;;;4955109;28;20065;-48
2021/08/25 10:20:51;;;;;;;7.13;3.95;;;;;;;;;;4954875;28;20052;-52
2021/08/25 10:23:18;;;;;;;8.63;3.72;;;;;;;;;;4954965;28;20150;-51
2021/08/25 10:26:04;;;;;;;7.90;3.90;;;;;;;;;;4954202;28;20242;-51
2021/08/25 10:28:50;;;;;;;6.70;4.00;;;;;;;;;;4968641;28;20042;-50
2021/08/25 10:31:17;;;;;;;7.85;4.00;;;;;;;;;;4973999;28;20046;-51
2021/08/25 10:34:02;;;;;;;6.20;3.88;;;;;;;;;;4973982;28;20057;-50
2021/08/25 10:36:29;;;;;;;7.00;4.45;;;;;;;;;;4963132;28;20416;-51
2021/08/25 10:38:55;;;;;;;6.03;3.97;;;;;;;;;;4955211;28;20134;-48
2021/08/25 10:41:22;;;;;;;5.32;3.63;;;;;;;;;;4954563;28;20499;-51
2021/08/25 10:43:49;;;;;;;7.80;4.00;;;;;;;;;;4952980;28;20069;-50
2021/08/25 10:46:17;;;;;;;8.52;3.60;;;;;;;;;;4953906;28;20039;-49
2021/08/25 10:48:51;;;;;;;7.65;4.70;;;;;;;;;;4953765;28;20055;-47
2021/08/25 10:51:28;;;;;;;8.75;4.20;;;;;;;;;;4954351;28;20130;-51
2021/08/25 10:53:55;;;;;;;7.57;4.72;;;;;;;;;;4969241;28;20050;-48
2021/08/25 10:56:32;;;;;;;6.13;4.00;;;;;;;;;;4968127;28;20051;-51
2021/08/25 10:59:03;;;;;;;5.97;3.80;;;;;;;;;;4954103;28;20448;-48
2021/08/25 11:01:41;;;;;;;9.48;4.32;;;;;;;;;;4954223;28;20453;-51
2021/08/25 11:04:11;;;;;;;109.28;16.50;;;;;;;;;;4953813;28;20090;-49
2021/08/25 11:06:42;;;;;;;207.50;28.48;;;;;;;;;;4953867;29;20055;-49
2021/08/25 11:09:13;;;;;;;9.05;4.30;;;;;;;;;;4954272;28;20047;-49
2021/08/25 11:11:42;;;;;;;67.85;11.00;;;;;;;;;;4953865;28;20404;-50
2021/08/25 11:14:14;;;;;;;10.70;3.83;;;;;;;;;;4953342;28;20051;-49
2021/08/25 11:16:41;;;;;;;5.93;3.67;;;;;;;;;;4953450;28;20047;-48
2021/08/25 11:19:07;;;;;;;8.55;4.32;;;;;;;;;;4953866;28;20047;-49
2021/08/25 11:21:38;;;;;;;6.05;3.88;;;;;;;;;;4953729;28;20046;-49
2021/08/25 11:24:04;;;;;;;6.60;4.22;;;;;;;;;;4953023;28;20059;-49
2021/08/25 11:26:31;;;;;;;8.02;3.80;;;;;;;;;;4954314;28;20043;-52
2021/08/25 11:28:58;;;;;;;7.38;4.35;;;;;;;;;;4953605;29;20065;-49
2021/08/25 11:31:25;;;;;;;37.88;9.75;;;;;;;;;;4953498;28;20047;-50
2021/08/25 11:33:53;;;;;;;6.38;4.05;;;;;;;;;;4953855;28;20043;-51
2021/08/25 11:36:20;;;;;;;7.78;4.53;;;;;;;;;;4951644;29;20044;-48
2021/08/25 11:38:48;;;;;;;6.65;4.10;;;;;;;;;;4954124;28;20050;-49
2021/08/25 11:41:15;;;;;;;6.70;4.25;;;;;;;;;;4953553;28;20150;-49
2021/08/25 11:43:45;;;;;;;7.32;4.30;;;;;;;;;;4953310;28;20126;-53
2021/08/25 11:46:22;;;;;;;17.77;5.18;;;;;;;;;;4952497;28;20476;-49
2021/08/25 11:48:49;;;;;;;8.02;4.00;;;;;;;;;;4953288;28;20051;-50
2021/08/25 11:51:16;;;;;;;21.63;5.60;;;;;;;;;;4953203;28;20043;-49
2021/08/25 11:53:43;;;;;;;6.50;4.05;;;;;;;;;;4953094;28;20043;-50
2021/08/25 11:56:09;;;;;;;6.25;3.80;;;;;;;;;;4952624;28;20039;-52
2021/08/25 11:58:41;;;;;;;7.85;4.43;;;;;;;;;;4953818;28;20047;-49
2021/08/25 12:01:24;;;;;;;6.20;4.00;;;;;;;;;;4953048;28;20057;-52
2021/08/25 12:03:52;;;;;;;8.10;4.20;;;;;;;;;;4953199;29;20421;-49
2021/08/25 12:06:19;;;;;;;6.18;3.67;;;;;;;;;;4956726;28;20139;-51
2021/08/25 12:08:47;;;;;;;7.22;3.72;;;;;;;;;;4966606;28;20440;-50
2021/08/25 12:11:15;;;;;;;6.85;4.10;;;;;;;;;;4953223;28;20053;-49
2021/08/25 12:13:44;;;;;;;12.90;4.68;;;;;;;;;;4953012;28;20039;-51
2021/08/25 12:16:24;;;;;;;13.63;4.82;;;;;;;;;;4952300;28;20075;-51
2021/08/25 12:18:52;;;;;;;7.47;3.88;;;;;;;;;;4952846;28;20051;-51
2021/08/25 12:21:19;;;;;;;8.18;4.03;;;;;;;;;;4952863;28;20047;-50
2021/08/25 12:23:57;;;;;;;10.77;4.00;;;;;;;;;;4952955;28;20062;-49
2021/08/25 12:26:24;;;;;;;5.90;4.00;;;;;;;;;;4952548;28;20039;-52
2021/08/25 12:28:50;;;;;;;25.73;6.57;;;;;;;;;;4953235;28;20400;-50
2021/08/25 12:31:21;;;;;;;15.27;4.50;;;;;;;;;;4952754;29;20117;-51
2021/08/25 12:33:51;;;;;;;18.45;5.25;;;;;;;;;;4953052;28;20465;-51
2021/08/25 12:36:23;;;;;;;8.00;4.45;;;;;;;;;;4952125;28;20442;-50
2021/08/25 12:38:54;;;;;;;7.25;4.28;;;;;;;;;;4966508;28;20150;-49
2021/08/25 12:41:21;;;;;;;13.90;5.22;;;;;;;;;;4952788;28;20146;-51
2021/08/25 12:43:49;;;;;;;6.25;3.95;;;;;;;;;;4952579;28;20139;-51
2021/08/25 12:46:16;;;;;;;5.75;3.95;;;;;;;;;;4966717;28;20044;-48
2021/08/25 12:48:43;;;;;;;9.32;4.45;;;;;;;;;;4959967;28;20050;-49
2021/08/25 12:51:10;;;;;;;8.50;4.80;;;;;;;;;;4972289;28;20122;-49
2021/08/25 12:53:37;;;;;;;7.22;4.25;;;;;;;;;;4971709;28;20061;-51
2021/08/25 12:56:04;;;;;;;6.28;4.00;;;;;;;;;;4971076;28;20049;-49
2021/08/25 12:58:31;;;;;;;7.03;4.65;;;;;;;;;;4967888;28;20051;-51
2021/08/25 13:00:57;;;;;;;18.00;5.45;;;;;;;;;;4952623;29;20493;-50
2021/08/25 13:03:24;;;;;;;7.45;4.32;;;;;;;;;;4952296;28;20076;-50
2021/08/25 13:05:51;;;;;;;5.60;3.90;;;;;;;;;;4961026;28;20468;-49
2021/08/25 13:08:18;;;;;;;8.82;4.38;;;;;;;;;;4970352;28;20046;-49
2021/08/25 13:10:45;;;;;;;8.38;4.63;;;;;;;;;;4952375;28;20431;-51
2021/08/25 13:13:12;;;;;;;7.07;4.43;;;;;;;;;;4956089;28;20043;-53
2021/08/25 13:15:39;;;;;;;7.25;4.60;;;;;;;;;;4954528;29;20043;-51
2021/08/25 13:18:06;;;;;;;6.13;4.15;;;;;;;;;;4970846;28;20046;-49
2021/08/25 13:20:32;;;;;;;11.45;4.28;;;;;;;;;;4956034;28;20051;-51
2021/08/25 13:23:09;;;;;;;6.63;4.50;;;;;;;;;;4955746;28;20126;-49
2021/08/25 13:25:36;;;;;;;6.13;4.28;;;;;;;;;;4955084;28;20449;-51
2021/08/25 13:28:05;;;;;;;17.05;11.05;;;;;;;;;;4955317;28;20039;-49
2021/08/25 13:30:32;;;;;;;18.10;7.00;;;;;;;;;;4954471;29;20130;-53
2021/08/25 13:32:59;;;;;;;14.98;5.35;;;;;;;;;;4955727;28;20429;-50
2021/08/25 13:35:27;;;;;;;6.47;4.03;;;;;;;;;;4974643;28;20043;-49
2021/08/25 13:37:53;;;;;;;6.07;4.22;;;;;;;;;;4974865;28;20042;-51
2021/08/25 13:40:20;;;;;;;7.28;4.22;;;;;;;;;;4957403;28;20051;-50
2021/08/25 13:42:47;;;;;;;7.05;4.07;;;;;;;;;;4955337;28;20082;-50
2021/08/25 13:45:14;;;;;;;7.05;4.03;;;;;;;;;;4954665;29;20054;-48
2021/08/25 13:47:41;;;;;;;8.02;4.53;;;;;;;;;;4955519;28;20053;-49
2021/08/25 13:50:08;;;;;;;7.35;4.43;;;;;;;;;;4955440;28;20050;-50
2021/08/25 13:52:35;;;;;;;6.78;4.60;;;;;;;;;;4955139;28;20098;-52
2021/08/25 13:55:03;;;;;;;7.22;4.30;;;;;;;;;;4954477;28;20071;-51
2021/08/25 13:57:30;;;;;;;8.35;4.78;;;;;;;;;;4955325;28;20058;-52
2021/08/25 13:59:57;;;;;;;7.18;4.45;;;;;;;;;;4955281;28;20047;-49
2021/08/25 14:02:24;;;;;;;6.97;4.20;;;;;;;;;;4955197;28;20366;-49
2021/08/25 14:04:51;;;;;;;8.02;4.78;;;;;;;;;;4954789;28;20091;-48
2021/08/25 14:07:18;;;;;;;8.63;4.85;;;;;;;;;;4954914;28;20074;-49
2021/08/25 14:09:45;;;;;;;8.15;4.45;;;;;;;;;;4955328;28;20050;-49
2021/08/25 14:12:11;;;;;;;10.13;4.43;;;;;;;;;;4954990;29;20114;-48
2021/08/25 14:14:38;;;;;;;6.85;4.82;;;;;;;;;;4954159;28;20062;-49
2021/08/25 14:17:05;;;;;;;6.88;3.88;;;;;;;;;;4954904;28;20082;-49
2021/08/25 14:19:31;;;;;;;7.63;4.63;;;;;;;;;;4970706;28;20046;-51
2021/08/25 14:21:58;;;;;;;7.65;4.88;;;;;;;;;;4973944;28;20512;-50
2021/08/25 14:24:25;;;;;;;8.93;4.32;;;;;;;;;;4972284;28;20051;-50
2021/08/25 14:26:52;;;;;;;7.53;4.57;;;;;;;;;;4966250;28;20051;-49
2021/08/25 14:29:19;;;;;;;7.47;4.75;;;;;;;;;;4954487;28;20154;-51
2021/08/25 14:31:47;;;;;;;10.88;4.60;;;;;;;;;;4954361;28;20498;-49
2021/08/25 14:34:13;;;;;;;7.78;4.50;;;;;;;;;;4953987;28;20442;-50
2021/08/25 14:36:40;;;;;;;7.75;5.00;;;;;;;;;;4953360;28;20047;-49
2021/08/25 14:39:07;;;;;;;9.25;4.63;;;;;;;;;;4954864;28;20035;-49
2021/08/25 14:41:33;;;;;;;6.60;4.30;;;;;;;;;;4954333;28;20124;-51
2021/08/25 14:44:00;;;;;;;8.10;4.50;;;;;;;;;;4952230;29;20077;-52